Time;durP1;ratioP1;P1;durP2;ratioP2;P2;SDS_P1;SDS_P2;PMS_P1;PMS_P2;Temp;Humidity;BMP_temperature;BMP_pressure;BME280_temperature;BME280_humidity;BME280_pressure;Samples;Min_cycle;Max_cycle;Signal;HPM_P1;HPM_P2
2022/11/02 00:02:15;;;;;;;14.20;2.30;;;11.40;99.90;;;;;;5090479;28;20371;-67
2022/11/02 00:04:41;;;;;;;11.02;2.40;;;11.30;99.90;;;;;;5090170;28;20031;-67
2022/11/02 00:07:06;;;;;;;10.50;2.83;;;11.20;99.90;;;;;;5093474;28;20089;-67
2022/11/02 00:09:32;;;;;;;12.35;3.65;;;11.20;99.90;;;;;;5093238;28;20035;-68
2022/11/02 00:11:57;;;;;;;17.40;3.25;;;11.30;99.90;;;;;;5088886;28;20016;-67
2022/11/02 00:14:24;;;;;;;12.57;3.08;;;11.30;99.90;;;;;;5093349;28;20055;-67
2022/11/02 00:16:50;;;;;;;9.55;2.22;;;11.40;99.90;;;;;;5093121;28;20487;-67
2022/11/02 00:19:16;;;;;;;10.93;2.20;;;11.40;99.90;;;;;;5093524;28;20056;-67
2022/11/02 00:21:42;;;;;;;14.55;3.67;;;11.50;99.90;;;;;;5094433;28;20032;-68
2022/11/02 00:24:11;;;;;;;6.80;2.45;;;11.60;99.90;;;;;;5087116;28;20036;-68
2022/11/02 00:26:37;;;;;;;9.15;2.30;;;11.70;99.90;;;;;;5090040;28;20035;-68
2022/11/02 00:29:07;;;;;;;6.10;2.30;;;11.70;99.90;;;;;;5089876;28;20024;-67
2022/11/02 00:31:32;;;;;;;10.40;2.38;;;11.80;99.90;;;;;;5089725;28;20020;-68
2022/11/02 00:33:58;;;;;;;9.85;2.30;;;11.70;99.90;;;;;;5090523;28;20023;-69
2022/11/02 00:36:24;;;;;;;6.53;1.92;;;11.70;99.90;;;;;;5094676;28;20032;-69
2022/11/02 00:38:50;;;;;;;7.72;1.88;;;11.70;99.90;;;;;;5087621;28;20031;-68
2022/11/02 00:41:17;;;;;;;5.65;1.23;;;11.70;99.90;;;;;;5088910;28;20133;-67
2022/11/02 00:43:43;;;;;;;12.63;2.72;;;11.70;99.90;;;;;;5090139;28;20410;-68
2022/11/02 00:46:09;;;;;;;11.07;1.92;;;11.70;99.90;;;;;;5090325;28;20032;-68
2022/11/02 00:48:35;;;;;;;6.95;2.05;;;11.70;99.90;;;;;;5089584;28;20027;-68
2022/11/02 00:51:00;;;;;;;10.32;1.55;;;11.70;99.90;;;;;;5090945;28;20011;-69
2022/11/02 00:53:26;;;;;;;6.82;1.73;;;11.70;99.90;;;;;;5090111;28;20496;-68
2022/11/02 00:55:52;;;;;;;4.50;1.10;;;11.80;99.90;;;;;;5086709;28;20025;-69
2022/11/02 00:58:18;;;;;;;7.38;1.52;;;11.70;99.90;;;;;;5078395;28;20024;-69
2022/11/02 01:00:44;;;;;;;4.70;2.00;;;11.70;99.90;;;;;;5080371;28;20365;-68
2022/11/02 01:03:09;;;;;;;5.97;1.10;;;11.70;99.90;;;;;;5080146;28;20028;-68
2022/11/02 01:05:36;;;;;;;6.93;1.00;;;11.70;99.90;;;;;;5082870;28;20030;-68
2022/11/02 01:08:02;;;;;;;5.93;1.42;;;11.70;99.90;;;;;;5093931;28;20023;-69
2022/11/02 01:10:28;;;;;;;8.63;1.10;;;11.70;99.90;;;;;;5090966;28;20073;-68
2022/11/02 01:12:53;;;;;;;9.73;1.52;;;11.70;99.90;;;;;;5092576;28;20384;-67
2022/11/02 01:15:19;;;;;;;10.15;2.50;;;11.60;99.90;;;;;;5089982;28;20031;-68
2022/11/02 01:17:45;;;;;;;4.55;1.27;;;11.60;99.90;;;;;;5087594;28;20386;-68
2022/11/02 01:20:11;;;;;;;9.70;1.60;;;11.60;99.90;;;;;;5078012;28;20021;-68
2022/11/02 01:22:36;;;;;;;4.07;1.50;;;11.60;99.90;;;;;;5077624;28;20021;-68
2022/11/02 01:25:03;;;;;;;7.47;1.65;;;11.60;99.90;;;;;;5083700;28;20372;-68
2022/11/02 01:27:28;;;;;;;5.30;1.45;;;11.60;99.90;;;;;;5089647;28;20051;-69
2022/11/02 01:29:54;;;;;;;6.30;0.73;;;11.50;99.90;;;;;;5093819;28;20071;-67
2022/11/02 01:32:19;;;;;;;10.38;1.90;;;11.50;99.90;;;;;;5089489;28;20055;-68
2022/11/02 01:34:45;;;;;;;14.02;1.63;;;11.50;99.90;;;;;;5087242;28;20024;-68
2022/11/02 01:37:10;;;;;;;10.90;1.92;;;11.50;99.90;;;;;;5087509;28;20103;-68
2022/11/02 01:39:36;;;;;;;7.47;1.15;;;11.50;99.90;;;;;;5089230;28;20028;-68
2022/11/02 01:42:01;;;;;;;9.20;1.20;;;11.50;99.90;;;;;;5089935;28;20089;-69
2022/11/02 01:44:29;;;;;;;7.63;1.10;;;11.50;99.90;;;;;;5091675;28;20078;-69
2022/11/02 01:47:02;;;;;;;10.73;1.15;;;11.50;99.90;;;;;;5086633;28;20017;-68
2022/11/02 01:49:32;;;;;;;10.57;1.67;;;11.50;99.90;;;;;;5081533;28;20044;-68
2022/11/02 01:52:10;;;;;;;12.27;1.42;;;11.50;99.90;;;;;;5089009;28;20039;-69
2022/11/02 01:54:44;;;;;;;11.88;1.23;;;11.40;99.90;;;;;;5088030;28;20051;-69
2022/11/02 01:57:14;;;;;;;6.38;1.13;;;11.40;99.90;;;;;;5086723;28;20023;-68
2022/11/02 01:59:59;;;;;;;9.32;1.33;;;11.40;99.90;;;;;;5091723;28;20028;-69
2022/11/02 02:02:26;;;;;;;9.95;1.88;;;11.50;99.90;;;;;;5092217;28;20036;-68
2022/11/02 02:04:58;;;;;;;5.85;0.93;;;11.50;99.90;;;;;;5082386;28;20024;-68
2022/11/02 02:07:24;;;;;;;10.80;1.40;;;11.50;99.90;;;;;;5089433;28;20024;-68
2022/11/02 02:09:51;;;;;;;12.35;2.33;;;11.40;99.90;;;;;;5078342;28;20576;-68
2022/11/02 02:12:18;;;;;;;5.72;1.33;;;11.40;99.90;;;;;;5088764;28;20027;-68
2022/11/02 02:14:43;;;;;;;15.57;2.05;;;11.30;99.90;;;;;;5086369;28;20028;-66
2022/11/02 02:17:17;;;;;;;7.75;1.67;;;11.30;99.90;;;;;;5088904;28;20020;-67
2022/11/02 02:20:24;;;;;;;8.43;1.48;;;11.30;99.90;;;;;;5076645;28;20442;-67
2022/11/02 02:23:15;;;;;;;6.75;1.45;;;11.30;99.90;;;;;;5083418;28;20028;-67
2022/11/02 02:26:07;;;;;;;6.95;1.27;;;11.20;99.90;;;;;;5082768;28;20031;-66
2022/11/02 02:29:01;;;;;;;14.75;2.00;;;11.30;99.90;;;;;;5089748;28;20028;-66
2022/11/02 02:31:41;;;;;;;10.90;1.52;;;11.30;99.90;;;;;;5078638;28;20423;-67
2022/11/02 02:34:18;;;;;;;9.32;1.35;;;11.30;99.90;;;;;;5092311;28;20056;-66
2022/11/02 02:36:55;;;;;;;14.15;2.08;;;11.30;99.90;;;;;;5086219;28;20047;-66
2022/11/02 02:39:42;;;;;;;14.63;2.03;;;11.30;99.90;;;;;;5087619;28;20028;-67
2022/11/02 02:42:32;;;;;;;11.00;2.28;;;11.40;99.90;;;;;;5087989;28;20480;-67
2022/11/02 02:45:17;;;;;;;9.52;1.75;;;11.40;99.90;;;;;;5087157;28;20109;-67
2022/11/02 02:47:51;;;;;;;14.18;2.53;;;11.40;99.90;;;;;;5082892;28;20028;-67
2022/11/02 02:50:31;;;;;;;5.93;1.73;;;11.40;99.90;;;;;;5087909;28;20024;-67
2022/11/02 02:53:00;;;;;;;9.57;1.42;;;11.40;99.90;;;;;;5088590;28;20016;-67
2022/11/02 02:55:31;;;;;;;7.22;1.95;;;11.30;99.90;;;;;;5080068;28;20020;-67
2022/11/02 02:58:00;;;;;;;10.27;1.13;;;11.20;99.90;;;;;;5088172;28;20024;-68
2022/11/02 03:00:25;;;;;;;13.85;1.73;;;11.20;99.90;;;;;;5077605;28;20028;-68
2022/11/02 03:03:01;;;;;;;7.85;2.10;;;11.20;99.90;;;;;;5077691;28;20040;-68
2022/11/02 03:05:36;;;;;;;10.18;1.50;;;11.20;99.90;;;;;;5080164;28;20030;-68
2022/11/02 03:08:08;;;;;;;16.17;2.42;;;11.10;99.90;;;;;;5092124;28;20111;-68
2022/11/02 03:11:01;;;;;;;14.40;2.00;;;11.20;99.90;;;;;;5087278;28;20028;-68
2022/11/02 03:13:46;;;;;;;4.60;0.90;;;11.20;99.90;;;;;;5080192;28;20028;-68
2022/11/02 03:16:26;;;;;;;14.30;1.75;;;11.20;99.90;;;;;;5087605;28;20024;-67
2022/11/02 03:19:13;;;;;;;9.80;2.50;;;11.20;99.90;;;;;;5085168;28;20448;-67
2022/11/02 03:21:42;;;;;;;10.75;1.73;;;11.20;99.90;;;;;;5087617;28;20097;-68
2022/11/02 03:24:12;;;;;;;11.00;1.85;;;11.30;99.90;;;;;;5091827;28;20024;-68
2022/11/02 03:26:47;;;;;;;16.95;2.65;;;11.30;99.90;;;;;;5091986;28;20024;-68
2022/11/02 03:29:24;;;;;;;16.80;2.38;;;11.30;99.90;;;;;;5077197;28;20398;-68
2022/11/02 03:31:53;;;;;;;16.75;2.25;;;11.20;99.90;;;;;;5078960;28;20028;-67
2022/11/02 03:34:36;;;;;;;13.95;1.95;;;11.10;99.90;;;;;;5087837;28;20081;-68
2022/11/02 03:37:17;;;;;;;17.55;2.97;;;11.00;99.90;;;;;;5088371;28;20028;-69
2022/11/02 03:39:52;;;;;;;15.05;2.58;;;10.80;99.90;;;;;;5077525;28;20529;-68
2022/11/02 03:42:22;;;;;;;17.27;2.45;;;10.80;99.90;;;;;;5090403;28;20494;-69
2022/11/02 03:44:54;;;;;;;17.35;2.33;;;10.70;99.90;;;;;;5085369;28;20478;-69
2022/11/02 03:47:21;;;;;;;24.65;2.60;;;10.70;99.90;;;;;;5090795;28;20033;-69
2022/11/02 03:49:49;;;;;;;21.75;3.13;;;10.80;99.90;;;;;;5091505;28;20359;-68
2022/11/02 03:52:20;;;;;;;11.07;2.00;;;10.80;99.90;;;;;;5095819;28;20064;-69
2022/11/02 03:55:02;;;;;;;20.02;2.97;;;10.90;99.90;;;;;;5090854;28;20028;-68
2022/11/02 03:57:49;;;;;;;11.00;1.83;;;11.10;99.90;;;;;;5082957;28;20027;-68
2022/11/02 04:00:23;;;;;;;15.60;3.40;;;11.20;99.90;;;;;;5084619;28;20021;-68
2022/11/02 04:02:58;;;;;;;15.57;2.75;;;11.30;99.90;;;;;;5081862;28;20121;-69
2022/11/02 04:05:32;;;;;;;14.82;2.00;;;11.40;99.90;;;;;;5082810;28;20574;-69
2022/11/02 04:16:12;;;;;;;16.77;1.98;;;11.60;99.90;;;;;;5094870;28;20062;-68
2022/11/02 04:21:21;;;;;;;10.77;1.67;;;11.70;99.90;;;;;;5090557;28;20078;-68
2022/11/02 04:26:31;;;;;;;9.82;1.70;;;11.70;99.90;;;;;;5078950;28;20031;-69
2022/11/02 04:28:57;;;;;;;16.85;2.53;;;11.60;99.90;;;;;;5081707;28;20020;-68
2022/11/02 04:31:22;;;;;;;14.70;1.90;;;11.50;99.90;;;;;;5081343;28;20489;-68
2022/11/02 04:33:48;;;;;;;20.40;2.22;;;11.40;99.90;;;;;;5094634;28;20436;-68
2022/11/02 04:36:13;;;;;;;15.02;2.20;;;11.40;99.90;;;;;;5088983;28;20557;-68
2022/11/02 04:38:39;;;;;;;14.07;2.00;;;11.40;99.90;;;;;;5088681;28;20077;-68
2022/11/02 04:43:54;;;;;;;15.23;2.33;;;11.50;99.90;;;;;;5091144;28;20073;-68
2022/11/02 04:46:21;;;;;;;10.07;2.55;;;11.60;99.90;;;;;;5090026;28;20020;-68
2022/11/02 04:48:46;;;;;;;9.88;1.85;;;11.70;99.90;;;;;;5089640;28;20024;-68
2022/11/02 04:51:12;;;;;;;15.00;1.83;;;11.80;99.90;;;;;;5089921;28;20089;-68
2022/11/02 04:53:38;;;;;;;12.57;2.00;;;11.90;99.90;;;;;;5090247;28;20028;-67
2022/11/02 04:56:03;;;;;;;10.93;1.75;;;11.90;99.90;;;;;;5089824;28;20026;-69
2022/11/02 04:58:29;;;;;;;16.35;1.80;;;12.00;99.90;;;;;;5089699;28;20028;-69
2022/11/02 05:00:55;;;;;;;14.35;2.42;;;12.00;99.90;;;;;;5081720;28;20349;-68
2022/11/02 05:03:20;;;;;;;15.13;2.97;;;12.00;99.90;;;;;;5078491;28;20440;-68
2022/11/02 05:05:46;;;;;;;11.57;2.05;;;12.00;99.90;;;;;;5083967;28;20397;-68
2022/11/02 05:08:11;;;;;;;10.68;2.22;;;12.00;99.90;;;;;;5093678;28;20432;-68
2022/11/02 05:10:37;;;;;;;11.35;2.38;;;12.00;99.90;;;;;;5088538;28;20087;-68
2022/11/02 05:13:02;;;;;;;12.27;1.70;;;11.90;99.90;;;;;;5086758;28;20024;-68
2022/11/02 05:15:28;;;;;;;13.80;3.05;;;11.90;99.90;;;;;;5089776;28;20020;-68
2022/11/02 05:17:53;;;;;;;10.60;3.22;;;11.90;99.90;;;;;;5089947;28;20153;-68
2022/11/02 05:20:19;;;;;;;28.40;5.50;;;11.90;99.90;;;;;;5089934;28;20039;-68
2022/11/02 05:22:45;;;;;;;15.82;3.92;;;11.90;99.90;;;;;;5089354;28;20036;-68
2022/11/02 05:25:10;;;;;;;16.33;3.10;;;12.00;99.90;;;;;;5089600;28;20046;-68
2022/11/02 05:27:37;;;;;;;18.38;4.65;;;12.00;99.90;;;;;;5089357;28;20023;-68
2022/11/02 05:30:04;;;;;;;10.85;2.97;;;12.10;99.90;;;;;;5089553;28;20760;-68
2022/11/02 05:32:29;;;;;;;11.68;3.83;;;12.20;99.90;;;;;;5089401;28;20114;-68
2022/11/02 05:34:55;;;;;;;16.45;3.53;;;12.20;99.90;;;;;;5089032;28;20310;-68
2022/11/02 05:37:21;;;;;;;14.25;2.85;;;12.30;99.90;;;;;;5090220;28;20025;-68
2022/11/02 05:39:46;;;;;;;15.55;4.35;;;12.30;99.90;;;;;;5083763;28;20026;-68
2022/11/02 05:42:12;;;;;;;19.35;4.10;;;12.30;99.90;;;;;;5092892;28;20061;-68
2022/11/02 05:44:37;;;;;;;14.02;3.55;;;12.40;99.90;;;;;;5088413;28;20046;-68
2022/11/02 05:47:03;;;;;;;6.88;1.92;;;12.40;99.90;;;;;;5086499;28;20074;-68
2022/11/02 05:49:29;;;;;;;14.38;2.08;;;12.40;99.90;;;;;;5089273;28;20512;-68
2022/11/02 05:51:54;;;;;;;9.95;2.53;;;12.40;99.90;;;;;;5089129;28;20019;-67
2022/11/02 05:54:20;;;;;;;8.38;1.52;;;12.40;99.90;;;;;;5090754;28;20376;-68
2022/11/02 05:56:46;;;;;;;11.07;1.73;;;12.50;99.90;;;;;;5088572;28;20020;-69
2022/11/02 05:59:12;;;;;;;10.45;1.70;;;12.40;99.90;;;;;;5077276;28;20041;-68
2022/11/02 06:01:38;;;;;;;12.40;2.28;;;12.50;99.90;;;;;;5090177;28;20440;-68
2022/11/02 06:04:04;;;;;;;12.55;2.10;;;12.50;99.90;;;;;;5088103;28;20047;-68
2022/11/02 06:06:30;;;;;;;10.10;1.48;;;12.60;99.90;;;;;;5090958;28;20043;-68
2022/11/02 06:08:55;;;;;;;8.43;1.40;;;12.60;99.90;;;;;;5087330;28;20746;-68
2022/11/02 06:11:21;;;;;;;11.85;3.78;;;12.70;99.90;;;;;;5088789;28;20024;-68
2022/11/02 06:13:50;;;;;;;10.40;2.97;;;12.70;99.90;;;;;;5092791;28;20059;-68
2022/11/02 06:16:17;;;;;;;10.02;2.00;;;12.80;99.90;;;;;;5092944;28;20111;-68
2022/11/02 06:18:43;;;;;;;11.73;2.35;;;12.80;99.90;;;;;;5078434;28;20111;-68
2022/11/02 06:21:09;;;;;;;13.23;3.25;;;12.80;99.90;;;;;;5089242;28;20112;-68
2022/11/02 06:23:35;;;;;;;15.23;4.80;;;12.90;99.90;;;;;;5080564;28;20044;-68
2022/11/02 06:26:02;;;;;;;11.13;2.70;;;12.90;99.90;;;;;;5081294;28;20111;-68
2022/11/02 06:28:29;;;;;;;15.52;3.60;;;12.90;99.90;;;;;;5084370;28;20024;-68
2022/11/02 06:30:55;;;;;;;10.75;2.00;;;12.90;99.90;;;;;;5085279;28;20024;-68
2022/11/02 06:33:21;;;;;;;9.65;2.40;;;12.90;99.90;;;;;;5086072;28;20020;-68
2022/11/02 06:35:50;;;;;;;10.75;2.17;;;13.00;99.90;;;;;;5085698;28;20028;-68
2022/11/02 06:38:16;;;;;;;13.27;3.05;;;12.90;99.90;;;;;;5074113;28;20453;-67
2022/11/02 06:40:42;;;;;;;11.25;2.35;;;12.90;99.90;;;;;;5092132;28;20028;-67
2022/11/02 06:43:08;;;;;;;11.80;2.58;;;12.90;99.90;;;;;;5074792;28;20051;-68
2022/11/02 06:45:34;;;;;;;15.55;2.15;;;12.90;99.90;;;;;;5087013;28;20021;-67
2022/11/02 06:48:00;;;;;;;15.98;3.05;;;12.90;99.90;;;;;;5080716;28;20024;-67
2022/11/02 06:50:26;;;;;;;12.95;3.03;;;12.90;99.90;;;;;;5082950;28;20036;-68
2022/11/02 06:52:52;;;;;;;22.08;4.80;;;12.90;99.90;;;;;;5088188;28;20024;-67
2022/11/02 06:55:18;;;;;;;12.63;2.97;;;12.90;99.90;;;;;;5088634;28;20016;-68
2022/11/02 06:57:44;;;;;;;10.13;2.67;;;12.90;99.90;;;;;;5078647;28;20439;-69
2022/11/02 07:00:12;;;;;;;18.27;3.55;;;12.90;99.90;;;;;;5091143;28;20040;-68
2022/11/02 07:02:39;;;;;;;15.00;2.55;;;12.90;99.90;;;;;;5091272;28;20122;-68
2022/11/02 07:05:05;;;;;;;11.25;2.70;;;12.90;99.90;;;;;;5092450;28;20020;-68
2022/11/02 07:07:31;;;;;;;13.80;3.45;;;12.90;99.90;;;;;;5092581;28;20016;-68
2022/11/02 07:09:56;;;;;;;18.65;3.90;;;13.00;99.90;;;;;;5092520;28;20462;-68
2022/11/02 07:12:22;;;;;;;11.55;1.88;;;12.90;99.90;;;;;;5081072;28;20050;-68
2022/11/02 07:14:47;;;;;;;15.32;3.30;;;13.00;99.90;;;;;;5087360;28;20020;-69
2022/11/02 07:17:13;;;;;;;5.63;1.92;;;13.00;99.90;;;;;;5090827;28;20039;-68
2022/11/02 07:19:38;;;;;;;17.80;3.03;;;13.00;99.90;;;;;;5094736;28;20024;-68
2022/11/02 07:22:04;;;;;;;18.40;3.00;;;13.00;99.90;;;;;;5096275;28;20032;-69
2022/11/02 07:24:30;;;;;;;13.98;2.00;;;13.10;99.90;;;;;;5096469;28;20031;-68
2022/11/02 07:26:55;;;;;;;13.55;2.10;;;13.10;99.90;;;;;;5096208;28;20402;-67
2022/11/02 07:29:21;;;;;;;16.95;2.83;;;13.10;99.90;;;;;;5095813;28;20027;-67
2022/11/02 07:31:47;;;;;;;13.90;2.10;;;13.20;99.90;;;;;;5093072;28;20124;-68
2022/11/02 07:34:12;;;;;;;18.05;2.50;;;13.20;99.90;;;;;;5094844;28;20378;-68
2022/11/02 07:36:38;;;;;;;11.05;2.00;;;13.20;99.90;;;;;;5096452;28;20056;-68
2022/11/02 07:39:06;;;;;;;10.10;1.88;;;13.20;99.90;;;;;;5096037;28;20024;-68
2022/11/02 07:41:32;;;;;;;10.38;1.95;;;13.20;99.90;;;;;;5086247;28;20676;-68
2022/11/02 07:43:58;;;;;;;12.40;2.10;;;13.30;99.90;;;;;;5093944;28;20457;-68
2022/11/02 07:46:23;;;;;;;13.15;2.72;;;13.30;99.90;;;;;;5093989;28;20115;-68
2022/11/02 07:48:49;;;;;;;19.42;3.30;;;13.40;99.90;;;;;;5094578;28;20078;-68
2022/11/02 07:51:14;;;;;;;11.80;2.85;;;13.40;99.90;;;;;;5094382;28;20340;-67
2022/11/02 07:53:40;;;;;;;16.30;2.05;;;13.50;99.90;;;;;;5095628;28;20040;-68
2022/11/02 07:56:06;;;;;;;14.50;3.17;;;13.50;99.90;;;;;;5094598;28;20106;-68
2022/11/02 07:58:32;;;;;;;12.38;1.70;;;13.60;99.90;;;;;;5090777;28;20428;-68
2022/11/02 08:00:58;;;;;;;16.48;2.13;;;13.60;99.90;;;;;;5090923;28;20028;-68
2022/11/02 08:03:24;;;;;;;11.70;1.98;;;13.70;99.90;;;;;;5092827;28;20047;-68
2022/11/02 08:05:50;;;;;;;14.13;2.05;;;13.70;99.90;;;;;;5092949;28;20024;-67
2022/11/02 08:08:22;;;;;;;13.20;2.45;;;13.60;99.90;;;;;;5090368;28;20028;-67
2022/11/02 08:10:51;;;;;;;9.57;2.20;;;13.60;99.90;;;;;;5083118;28;20032;-67
2022/11/02 08:13:22;;;;;;;10.38;1.75;;;13.50;99.90;;;;;;5091423;28;20024;-68
2022/11/02 08:15:52;;;;;;;10.52;1.80;;;13.50;99.90;;;;;;5083566;28;20024;-68
2022/11/02 08:18:19;;;;;;;11.25;1.60;;;13.60;99.90;;;;;;5087923;28;20023;-68
2022/11/02 08:20:45;;;;;;;18.83;3.13;;;13.60;99.90;;;;;;5091887;28;20035;-68
2022/11/02 08:23:11;;;;;;;16.38;3.90;;;13.70;99.90;;;;;;5090747;28;20048;-68
2022/11/02 08:25:38;;;;;;;13.93;3.38;;;13.80;99.90;;;;;;5090231;28;20360;-68
2022/11/02 08:28:05;;;;;;;13.57;2.45;;;13.90;99.90;;;;;;5093786;28;20391;-68
2022/11/02 08:30:32;;;;;;;15.27;3.53;;;13.90;99.90;;;;;;5093577;28;20376;-68
2022/11/02 08:33:11;;;;;;;12.07;2.28;;;13.80;99.90;;;;;;5094585;28;20452;-67
2022/11/02 08:35:38;;;;;;;11.93;2.67;;;13.80;99.90;;;;;;5082630;28;20141;-68
2022/11/02 08:38:04;;;;;;;11.13;1.70;;;13.80;99.90;;;;;;5091683;28;20062;-67
2022/11/02 08:40:31;;;;;;;12.93;3.17;;;13.80;99.90;;;;;;5089989;28;20036;-68
2022/11/02 08:43:01;;;;;;;10.60;1.90;;;13.90;99.90;;;;;;5094462;28;20051;-68
2022/11/02 08:45:29;;;;;;;11.32;1.63;;;14.00;99.90;;;;;;5090722;28;20058;-68
2022/11/02 08:47:55;;;;;;;10.20;1.88;;;14.10;99.90;;;;;;5091113;28;20368;-67
2022/11/02 08:50:21;;;;;;;15.77;1.80;;;14.10;99.90;;;;;;5086224;28;20022;-68
2022/11/02 08:52:47;;;;;;;13.43;2.75;;;14.30;99.90;;;;;;5092727;28;20073;-68
2022/11/02 08:55:12;;;;;;;6.20;1.20;;;14.60;99.90;;;;;;5078182;28;20255;-68
2022/11/02 08:57:52;;;;;;;9.95;1.58;;;15.00;99.90;;;;;;5085832;28;20032;-68
2022/11/02 09:00:21;;;;;;;9.40;1.55;;;15.20;99.90;;;;;;5084594;28;20049;-68
2022/11/02 09:03:04;;;;;;;10.75;1.50;;;15.50;99.90;;;;;;5092386;28;20371;-67
2022/11/02 09:05:42;;;;;;;8.95;1.35;;;15.70;99.90;;;;;;5093296;28;20063;-68
2022/11/02 09:08:13;;;;;;;15.45;1.65;;;16.00;99.90;;;;;;5089924;28;20032;-68
2022/11/02 09:10:39;;;;;;;12.73;1.92;;;15.90;99.90;;;;;;5091874;28;20032;-68
2022/11/02 09:13:07;;;;;;;5.60;1.40;;;15.90;99.90;;;;;;5091897;28;20577;-68
2022/11/02 09:15:35;;;;;;;10.32;1.92;;;16.10;99.90;;;;;;5087902;28;20028;-68
2022/11/02 09:18:02;;;;;;;11.35;1.83;;;16.70;99.90;;;;;;5092350;28;20024;-67
2022/11/02 09:20:30;;;;;;;8.77;1.90;;;17.10;99.90;;;;;;5092192;28;20020;-67
2022/11/02 09:22:56;;;;;;;11.63;1.85;;;17.40;99.90;;;;;;5090078;28;20040;-68
2022/11/02 09:25:21;;;;;;;8.55;1.70;;;17.70;99.30;;;;;;5081176;28;20452;-68
2022/11/02 09:27:53;;;;;;;9.82;1.63;;;18.10;98.50;;;;;;5092042;28;20034;-68
2022/11/02 09:30:18;;;;;;;6.85;1.50;;;18.30;98.10;;;;;;5092478;28;20024;-67
2022/11/02 09:32:44;;;;;;;11.30;1.60;;;18.40;97.50;;;;;;5092749;28;20127;-68
2022/11/02 09:35:11;;;;;;;7.57;1.50;;;17.90;98.10;;;;;;5092408;28;20341;-68
2022/11/02 09:37:37;;;;;;;12.55;1.65;;;17.70;98.30;;;;;;5086305;28;20036;-68
2022/11/02 09:40:04;;;;;;;13.27;1.90;;;17.90;97.90;;;;;;5087137;28;20024;-68
2022/11/02 09:42:57;;;;;;;8.52;1.25;;;17.90;97.80;;;;;;5090965;28;20036;-68
2022/11/02 09:45:24;;;;;;;6.57;1.27;;;17.90;97.50;;;;;;5088421;28;20043;-68
2022/11/02 09:47:55;;;;;;;14.07;2.08;;;18.20;97.30;;;;;;5086379;28;20019;-68
2022/11/02 09:50:23;;;;;;;8.77;1.65;;;18.00;96.60;;;;;;5093496;28;20059;-68
2022/11/02 09:52:55;;;;;;;13.85;1.38;;;18.20;96.70;;;;;;5092028;28;20085;-68
2022/11/02 09:55:29;;;;;;;6.18;1.30;;;18.50;96.50;;;;;;5091484;28;20464;-67
2022/11/02 09:58:04;;;;;;;10.98;1.35;;;18.70;96.20;;;;;;5092911;28;20024;-68
2022/11/02 10:00:36;;;;;;;13.07;1.75;;;18.70;96.30;;;;;;5079697;28;20051;-68
2022/11/02 10:03:41;;;;;;;7.82;1.25;;;19.10;96.30;;;;;;5091044;28;20054;-67
2022/11/02 10:06:14;;;;;;;9.73;1.30;;;19.10;95.30;;;;;;5092422;28;20089;-68
2022/11/02 10:08:58;;;;;;;9.65;1.52;;;19.30;95.10;;;;;;5091798;28;20107;-68
2022/11/02 10:11:56;;;;;;;10.55;1.45;;;19.50;95.10;;;;;;5085433;28;20016;-68
2022/11/02 10:14:29;;;;;;;8.95;1.77;;;19.30;96.00;;;;;;5089828;28;20544;-68
2022/11/02 10:17:03;;;;;;;14.50;2.05;;;19.50;95.30;;;;;;5092985;28;20049;-68
2022/11/02 10:19:31;;;;;;;6.05;1.20;;;19.80;95.10;;;;;;5078401;28;20452;-68
2022/11/02 10:21:57;;;;;;;7.15;1.70;;;20.00;93.20;;;;;;5092707;28;20075;-68
2022/11/02 10:24:25;;;;;;;5.10;1.63;;;20.00;93.80;;;;;;5080374;28;20024;-68
2022/11/02 10:26:57;;;;;;;8.88;1.20;;;20.30;93.50;;;;;;5089084;28;20031;-68
2022/11/02 10:29:35;;;;;;;9.07;1.50;;;20.40;92.30;;;;;;5079676;28;20429;-68
2022/11/02 10:32:01;;;;;;;5.47;1.40;;;20.30;92.50;;;;;;5083091;28;20028;-68
2022/11/02 10:34:28;;;;;;;14.73;2.65;;;19.90;93.30;;;;;;5084105;28;20113;-68
2022/11/02 10:37:12;;;;;;;10.52;3.10;;;19.90;93.70;;;;;;5076211;28;20035;-68
2022/11/02 10:40:04;;;;;;;12.60;2.63;;;19.70;94.30;;;;;;5091886;28;20480;-68
2022/11/02 10:42:57;;;;;;;5.85;2.00;;;19.40;94.70;;;;;;5090065;28;20040;-68
2022/11/02 10:45:51;;;;;;;9.93;2.40;;;19.40;95.10;;;;;;5090255;28;20295;-69
2022/11/02 10:48:41;;;;;;;8.77;2.20;;;19.60;94.10;;;;;;5089825;28;20024;-68
2022/11/02 10:51:11;;;;;;;7.78;1.83;;;19.80;94.10;;;;;;5088295;28;20035;-68
2022/11/02 10:54:10;;;;;;;12.05;2.05;;;19.90;94.00;;;;;;5085471;28;20020;-68
2022/11/02 10:56:35;;;;;;;10.82;2.05;;;20.00;93.60;;;;;;5092045;28;20032;-68
2022/11/02 10:59:08;;;;;;;8.13;1.83;;;19.90;93.90;;;;;;5090748;28;20020;-68
2022/11/02 11:01:34;;;;;;;9.65;2.25;;;20.10;93.90;;;;;;5091143;28;20059;-68
2022/11/02 11:04:06;;;;;;;15.10;2.72;;;20.10;94.40;;;;;;5090204;28;20097;-68
2022/11/02 11:06:41;;;;;;;7.57;2.00;;;20.00;94.80;;;;;;5083653;28;20021;-68
2022/11/02 11:09:20;;;;;;;11.05;1.77;;;19.90;95.30;;;;;;5089978;28;20036;-68
2022/11/02 11:12:04;;;;;;;5.25;1.75;;;19.70;95.10;;;;;;5088889;28;20035;-68
2022/11/02 11:14:36;;;;;;;10.65;1.95;;;19.10;95.20;;;;;;5082483;28;20086;-68
2022/11/02 11:17:13;;;;;;;16.35;1.98;;;18.70;96.20;;;;;;5091295;28;20031;-68
2022/11/02 11:19:45;;;;;;;11.27;2.45;;;19.10;96.30;;;;;;5085905;28;20020;-68
2022/11/02 11:22:33;;;;;;;12.05;2.42;;;19.30;96.30;;;;;;5090475;28;20040;-68
2022/11/02 11:25:24;;;;;;;11.18;1.52;;;19.70;96.10;;;;;;5088811;28;20032;-68
2022/11/02 11:27:55;;;;;;;7.85;1.80;;;20.10;95.40;;;;;;5080313;28;20017;-68
2022/11/02 11:30:36;;;;;;;13.95;2.35;;;20.40;94.70;;;;;;5091031;28;20034;-67
2022/11/02 11:33:05;;;;;;;7.18;2.00;;;20.70;94.40;;;;;;5091553;28;20031;-68
2022/11/02 11:35:32;;;;;;;6.45;1.38;;;20.60;93.30;;;;;;5090980;28;20051;-68
2022/11/02 11:38:06;;;;;;;11.15;1.58;;;20.30;93.60;;;;;;5091716;28;20024;-68
2022/11/02 11:40:36;;;;;;;12.43;1.80;;;19.90;94.10;;;;;;5084024;28;20515;-68
2022/11/02 11:43:03;;;;;;;8.10;1.73;;;19.80;94.50;;;;;;5090922;28;20043;-68
2022/11/02 11:45:31;;;;;;;10.48;1.85;;;19.60;95.20;;;;;;5078023;28;20050;-68
2022/11/02 11:48:00;;;;;;;7.85;1.73;;;19.40;95.10;;;;;;5091780;28;20093;-68
2022/11/02 11:50:26;;;;;;;9.32;1.77;;;19.00;95.60;;;;;;5080797;28;20116;-68
2022/11/02 11:53:26;;;;;;;11.52;2.10;;;18.90;95.70;;;;;;5091886;28;20103;-69
2022/11/02 11:55:58;;;;;;;9.13;1.40;;;18.50;96.20;;;;;;5079665;28;20371;-67
2022/11/02 11:58:28;;;;;;;10.35;1.65;;;18.40;96.80;;;;;;5079868;28;20040;-68
2022/11/02 12:01:14;;;;;;;9.70;1.70;;;18.40;96.60;;;;;;5086313;28;20471;-68
2022/11/02 12:04:00;;;;;;;11.93;1.83;;;18.80;96.50;;;;;;5081669;28;20040;-67
2022/11/02 12:06:51;;;;;;;10.80;1.85;;;19.40;96.00;;;;;;5073080;28;20313;-68
2022/11/02 12:09:45;;;;;;;8.38;1.67;;;19.60;94.90;;;;;;5090584;28;20114;-68
2022/11/02 12:12:23;;;;;;;9.07;1.52;;;19.50;95.00;;;;;;5090983;28;20055;-68
2022/11/02 12:15:01;;;;;;;10.35;1.60;;;19.60;94.70;;;;;;5085372;28;20039;-68
2022/11/02 12:17:55;;;;;;;7.88;1.25;;;19.40;94.80;;;;;;5094994;28;20119;-67
2022/11/02 12:20:44;;;;;;;12.50;1.40;;;19.00;95.20;;;;;;5095413;28;20111;-67
2022/11/02 12:23:37;;;;;;;9.55;1.27;;;18.70;95.40;;;;;;5094680;28;20467;-67
2022/11/02 12:26:16;;;;;;;13.20;1.92;;;18.90;95.70;;;;;;5094402;28;20485;-67
2022/11/02 12:28:57;;;;;;;12.18;1.95;;;19.40;95.10;;;;;;5089286;28;20106;-68
2022/11/02 12:31:37;;;;;;;11.77;1.60;;;19.90;95.00;;;;;;5089376;28;20016;-67
2022/11/02 12:34:02;;;;;;;10.52;1.77;;;20.40;94.20;;;;;;5089652;28;20020;-67
2022/11/02 12:36:31;;;;;;;7.93;1.35;;;20.40;93.80;;;;;;5094649;28;20055;-67
2022/11/02 12:39:19;;;;;;;12.35;2.03;;;20.00;93.70;;;;;;5090754;28;20336;-67
2022/11/02 12:42:09;;;;;;;7.03;1.35;;;19.80;94.40;;;;;;5089308;28;20467;-67
2022/11/02 12:45:05;;;;;;;12.25;2.03;;;19.80;94.00;;;;;;5075830;28;20140;-67
2022/11/02 12:47:51;;;;;;;12.57;1.45;;;19.80;94.40;;;;;;5087190;28;20051;-67
2022/11/02 12:50:35;;;;;;;6.97;1.20;;;19.80;93.90;;;;;;5088946;28;20093;-67
2022/11/02 12:53:37;;;;;;;8.35;1.35;;;19.50;94.00;;;;;;5092314;28;20024;-66
2022/11/02 12:56:06;;;;;;;14.35;1.92;;;19.30;94.50;;;;;;5087208;28;20024;-67
2022/11/02 12:58:35;;;;;;;9.57;1.55;;;19.10;94.90;;;;;;5094169;28;20016;-66
2022/11/02 13:01:20;;;;;;;9.93;1.48;;;19.20;95.10;;;;;;5090024;28;20020;-67
2022/11/02 13:03:52;;;;;;;10.15;1.58;;;19.00;95.40;;;;;;5094318;28;20143;-67
2022/11/02 13:06:52;;;;;;;10.27;1.65;;;18.90;95.50;;;;;;5091154;28;20032;-67
2022/11/02 13:09:27;;;;;;;7.28;1.65;;;18.70;95.90;;;;;;5072717;28;20447;-67
2022/11/02 13:12:08;;;;;;;14.43;1.90;;;18.30;96.30;;;;;;5090120;28;20023;-67
2022/11/02 13:14:46;;;;;;;12.87;2.03;;;18.10;96.90;;;;;;5073777;28;20032;-68
2022/11/02 13:17:19;;;;;;;11.75;1.80;;;17.90;96.90;;;;;;5084358;28;20020;-68
2022/11/02 13:19:58;;;;;;;11.10;1.63;;;17.80;97.00;;;;;;5078447;28;20029;-65